createdAt,value
2022-10-05T00:02:53.719Z,85.13
2022-10-05T00:05:55.128Z,85.15
2022-10-05T00:08:56.578Z,85.26
2022-10-05T00:11:58.216Z,85.11
2022-10-05T00:15:01.431Z,84.90
2022-10-05T00:18:09.384Z,84.84
2022-10-05T00:21:19.624Z,84.61
2022-10-05T00:24:20.989Z,84.96
2022-10-05T00:27:25.408Z,85.16
2022-10-05T00:30:32.134Z,85.09
2022-10-05T00:33:33.505Z,85.43
2022-10-05T00:36:34.896Z,85.51
2022-10-05T00:39:40.330Z,85.51
2022-10-05T00:42:51.221Z,85.27
2022-10-05T00:46:25.498Z,85.40
2022-10-05T00:50:04.552Z,85.10
2022-10-05T00:53:25.383Z,85.19
2022-10-05T00:56:59.337Z,84.85
2022-10-05T01:00:08.406Z,85.02
2022-10-05T01:03:25.965Z,84.90
2022-10-05T01:06:46.571Z,85.04
2022-10-05T01:10:08.378Z,85.00
2022-10-05T01:13:35.953Z,84.64
2022-10-05T01:16:41.059Z,85.06
2022-10-05T01:19:58.418Z,84.92
2022-10-05T01:23:21.183Z,84.89
2022-10-05T01:26:44.237Z,85.32
2022-10-05T01:30:02.474Z,85.07
2022-10-05T01:33:11.550Z,85.47
2022-10-05T01:36:12.846Z,85.42
2022-10-05T01:39:29.184Z,85.00
2022-10-05T01:42:48.868Z,85.35
2022-10-05T01:46:08.895Z,85.58
2022-10-05T01:49:30.179Z,85.53
2022-10-05T01:52:57.078Z,85.57
2022-10-05T01:56:07.708Z,85.66
2022-10-05T01:59:41.876Z,85.43
2022-10-05T02:03:01.908Z,85.41
2022-10-05T02:06:13.136Z,85.57
2022-10-05T02:09:24.936Z,85.85
2022-10-05T02:12:31.266Z,85.90
2022-10-05T02:15:42.852Z,86.09
2022-10-05T02:18:54.376Z,86.04
2022-10-05T02:22:03.244Z,86.12
2022-10-05T02:25:14.205Z,86.11
2022-10-05T02:28:30.546Z,86.02
2022-10-05T02:31:45.186Z,86.09
2022-10-05T02:34:47.061Z,86.68
2022-10-05T02:38:18.364Z,86.12
2022-10-05T02:41:47.513Z,86.14
2022-10-05T02:45:01.994Z,86.61
2022-10-05T02:48:22.465Z,86.97
2022-10-05T02:51:35.073Z,86.36
2022-10-05T02:54:55.349Z,86.68
2022-10-05T02:58:04.307Z,86.74
2022-10-05T03:01:24.158Z,86.41
2022-10-05T03:04:55.401Z,86.57
2022-10-05T03:08:18.946Z,86.88
2022-10-05T03:11:46.655Z,86.60
2022-10-05T03:15:06.338Z,87.17
2022-10-05T03:18:42.722Z,86.92
2022-10-05T03:21:57.387Z,87.24
2022-10-05T03:25:23.614Z,87.37
2022-10-05T03:28:58.492Z,87.49
2022-10-05T03:32:02.910Z,87.75
2022-10-05T03:35:18.050Z,87.56
2022-10-05T03:38:29.463Z,87.81
2022-10-05T03:41:46.500Z,87.59
2022-10-05T03:45:05.736Z,87.65
2022-10-05T03:48:15.379Z,87.98
2022-10-05T03:51:42.840Z,87.87
2022-10-05T03:54:47.091Z,88.15
2022-10-05T03:57:51.708Z,88.23
2022-10-05T04:00:59.816Z,88.50
2022-10-05T04:04:04.844Z,88.45
2022-10-05T04:07:21.872Z,88.48
2022-10-05T04:10:27.036Z,88.76
2022-10-05T04:13:42.249Z,88.69
2022-10-05T04:16:54.809Z,88.67
2022-10-05T04:20:05.565Z,88.63
2022-10-05T04:23:10.589Z,88.56
2022-10-05T04:26:24.782Z,88.60
2022-10-05T04:29:53.247Z,88.56
2022-10-05T04:32:56.731Z,88.98
2022-10-05T04:36:07.870Z,89.04
2022-10-05T04:39:21.158Z,88.89
2022-10-05T04:42:30.883Z,89.27
2022-10-05T04:45:50.142Z,89.32
2022-10-05T04:49:29.330Z,89.32
2022-10-05T04:52:40.101Z,89.68
2022-10-05T04:55:57.774Z,89.69
2022-10-05T04:59:30.803Z,89.67
2022-10-05T05:02:44.942Z,89.88
2022-10-05T05:06:15.909Z,90.00
2022-10-05T05:09:42.478Z,90.35
2022-10-05T05:13:16.621Z,90.47
2022-10-05T05:16:38.793Z,91.14
2022-10-05T05:19:54.866Z,91.09
2022-10-05T05:23:10.059Z,91.23
2022-10-05T05:26:30.114Z,91.50
2022-10-05T05:30:03.193Z,91.67
2022-10-05T05:33:22.367Z,91.84
2022-10-05T05:36:43.145Z,92.34
2022-10-05T05:39:50.764Z,92.45
2022-10-05T05:43:24.430Z,92.40
2022-10-05T05:47:01.565Z,92.61
2022-10-05T05:50:31.075Z,92.63
2022-10-05T05:53:44.242Z,93.09
2022-10-05T05:57:05.479Z,93.08
2022-10-05T06:00:24.535Z,93.72
2022-10-05T06:03:48.944Z,93.53
2022-10-05T06:06:53.738Z,93.46
2022-10-05T06:10:05.857Z,93.01
2022-10-05T06:13:35.144Z,93.41
2022-10-05T06:16:43.647Z,93.67
2022-10-05T06:19:47.088Z,93.89
2022-10-05T06:22:50.541Z,94.07
2022-10-05T06:26:13.500Z,93.65
2022-10-05T06:29:22.853Z,93.96
2022-10-05T06:32:36.624Z,93.50
2022-10-05T06:35:56.976Z,93.28
2022-10-05T06:39:07.961Z,93.49
2022-10-05T06:42:15.726Z,93.65
2022-10-05T06:46:20.737Z,93.62
2022-10-05T06:50:07.017Z,93.33
2022-10-05T06:53:41.453Z,93.11
2022-10-05T06:56:50.630Z,92.99
2022-10-05T07:00:19.330Z,92.93
2022-10-05T07:03:48.978Z,92.96
2022-10-05T07:06:56.639Z,93.33
2022-10-05T07:10:07.745Z,92.83
2022-10-05T07:13:24.776Z,92.32
2022-10-05T07:16:59.833Z,91.91
2022-10-05T07:20:07.524Z,91.94
2022-10-05T07:23:36.990Z,91.87
2022-10-05T07:27:17.761Z,91.88
2022-10-05T07:30:19.931Z,92.54
2022-10-05T07:33:28.807Z,92.26
2022-10-05T07:36:41.611Z,92.33
2022-10-05T07:40:09.776Z,92.24
2022-10-05T07:44:00.424Z,92.21
2022-10-05T07:47:06.132Z,93.46
2022-10-05T07:50:44.198Z,92.75
2022-10-05T07:54:05.973Z,92.65
2022-10-05T07:57:20.186Z,92.34
2022-10-05T08:00:24.456Z,91.67
2022-10-05T08:03:42.841Z,90.87
2022-10-05T08:06:57.716Z,90.26
2022-10-05T08:10:28.590Z,89.80
2022-10-05T08:13:47.386Z,89.91
2022-10-05T08:16:53.738Z,89.91
2022-10-05T08:20:17.042Z,89.28
2022-10-05T08:23:42.295Z,89.09
2022-10-05T08:26:49.652Z,88.97
2022-10-05T08:30:08.690Z,87.88
2022-10-05T08:33:16.586Z,87.49
2022-10-05T08:36:31.797Z,86.64
2022-10-05T08:39:41.449Z,86.51
2022-10-05T08:43:07.694Z,85.72
2022-10-05T08:46:18.360Z,86.54
2022-10-05T08:49:42.358Z,86.96
2022-10-05T08:53:01.574Z,86.65
2022-10-05T08:56:26.373Z,84.53
2022-10-05T09:00:07.885Z,83.20
2022-10-05T09:03:28.985Z,83.29
2022-10-05T09:06:57.596Z,83.12
2022-10-05T09:10:17.652Z,82.87
2022-10-05T09:13:39.938Z,81.93
2022-10-05T09:16:49.399Z,82.50
2022-10-05T09:20:16.191Z,81.02
2022-10-05T09:23:34.739Z,81.87
2022-10-05T09:26:53.011Z,80.33
2022-10-05T09:30:19.384Z,80.33
2022-10-05T09:33:55.193Z,79.69
2022-10-05T09:37:33.181Z,79.19
2022-10-05T09:40:53.303Z,78.18
2022-10-05T09:44:16.120Z,77.42
2022-10-05T09:47:26.053Z,77.54
2022-10-05T09:50:46.188Z,77.53
2022-10-05T09:54:09.494Z,76.68
2022-10-05T09:57:25.873Z,77.96
2022-10-05T10:00:34.925Z,76.73
2022-10-05T10:04:13.573Z,76.61
2022-10-05T10:07:35.994Z,78.07
2022-10-05T10:10:43.329Z,79.01
2022-10-05T10:14:12.040Z,78.99
2022-10-05T10:17:24.945Z,79.72
2022-10-05T10:20:26.309Z,80.55
2022-10-05T10:23:49.497Z,80.19
2022-10-05T10:27:18.602Z,80.74
2022-10-05T10:30:41.079Z,81.30
2022-10-05T10:34:19.219Z,81.08
2022-10-05T10:37:57.483Z,81.40
2022-10-05T10:41:26.170Z,81.45
2022-10-05T10:44:54.911Z,81.23
2022-10-05T10:48:04.623Z,80.64
2022-10-05T10:51:05.899Z,80.97
2022-10-05T10:54:32.650Z,80.07
2022-10-05T10:58:15.086Z,80.46
2022-10-05T11:01:34.518Z,78.75
2022-10-05T11:04:47.799Z,79.47
2022-10-05T11:08:07.423Z,78.55
2022-10-05T11:11:56.348Z,78.18
2022-10-05T11:15:25.148Z,77.95
2022-10-05T11:18:41.376Z,77.62
2022-10-05T11:22:20.342Z,76.72
2022-10-05T11:25:48.679Z,77.34
2022-10-05T11:29:11.891Z,76.77
2022-10-05T11:32:13.208Z,77.21
2022-10-05T11:35:46.627Z,75.69
2022-10-05T11:39:25.032Z,76.54
2022-10-05T11:43:05.226Z,75.43
2022-10-05T11:46:43.677Z,75.01
2022-10-05T11:49:47.780Z,75.89
2022-10-05T11:53:06.347Z,74.78
2022-10-05T12:00:09.409Z,73.80
2022-10-05T12:03:10.946Z,74.12
2022-10-05T12:06:39.868Z,74.59
2022-10-05T12:10:08.323Z,73.63
2022-10-05T12:13:44.992Z,73.82
2022-10-05T12:16:57.083Z,73.52
2022-10-05T12:20:03.048Z,74.27
2022-10-05T12:23:32.229Z,73.17
2022-10-05T12:26:40.153Z,73.63
2022-10-05T12:29:54.175Z,73.62
2022-10-05T12:33:05.913Z,73.03
2022-10-05T12:36:36.003Z,73.06
2022-10-05T12:39:56.353Z,73.65
2022-10-05T12:43:39.706Z,72.27
2022-10-05T12:47:07.041Z,72.04
2022-10-05T12:50:30.732Z,72.64
2022-10-05T12:53:41.389Z,72.00
2022-10-05T12:56:50.205Z,72.23
2022-10-05T13:00:04.466Z,71.51
2022-10-05T13:03:23.978Z,70.98
2022-10-05T13:07:05.058Z,71.09
2022-10-05T13:10:26.838Z,71.71
2022-10-05T13:13:39.245Z,71.82
2022-10-05T13:17:06.981Z,71.01
2022-10-05T13:20:32.552Z,71.57
2022-10-05T13:23:47.327Z,72.35
2022-10-05T13:27:15.814Z,72.00
2022-10-05T13:30:20.198Z,72.25
2022-10-05T13:33:28.471Z,72.11
2022-10-05T13:36:41.110Z,72.16
2022-10-05T13:40:06.383Z,71.09
2022-10-05T13:43:16.163Z,71.94
2022-10-05T13:46:37.577Z,70.80
2022-10-05T13:49:49.554Z,71.54
2022-10-05T13:53:12.787Z,71.86
2022-10-05T13:56:33.324Z,71.19
2022-10-05T13:59:49.584Z,71.51
2022-10-05T14:02:53.256Z,72.08
2022-10-05T14:05:57.757Z,72.55
2022-10-05T14:08:59.204Z,72.57
2022-10-05T14:12:03.325Z,72.75
2022-10-05T14:15:20.518Z,72.63
2022-10-05T14:18:27.462Z,72.82
2022-10-05T14:21:31.064Z,73.18
2022-10-05T14:24:44.873Z,73.20
2022-10-05T14:28:03.899Z,72.95
2022-10-05T14:31:16.357Z,73.32
2022-10-05T14:34:27.090Z,73.04
2022-10-05T14:37:41.897Z,73.29
2022-10-05T14:40:43.337Z,73.26
2022-10-05T14:44:00.105Z,73.16
2022-10-05T14:47:19.958Z,73.06
2022-10-05T14:50:23.943Z,73.50
2022-10-05T14:53:37.611Z,73.25
2022-10-05T14:56:53.555Z,73.66
2022-10-05T14:59:57.856Z,74.05
2022-10-05T15:03:18.672Z,73.61
2022-10-05T15:06:44.150Z,74.15
2022-10-05T15:10:23.333Z,73.83
2022-10-05T15:13:30.898Z,74.18
2022-10-05T15:16:35.816Z,74.14
2022-10-05T15:19:47.755Z,74.15
2022-10-05T15:22:58.627Z,73.90
2022-10-05T15:26:18.273Z,73.93
2022-10-05T15:29:47.333Z,74.12
2022-10-05T15:33:21.367Z,73.60
2022-10-05T15:36:49.416Z,73.69
2022-10-05T15:39:56.118Z,73.89
2022-10-05T15:43:04.246Z,73.70
2022-10-05T15:46:11.299Z,73.88
2022-10-05T15:49:33.572Z,73.98
2022-10-05T15:52:46.313Z,73.97
2022-10-05T15:55:52.161Z,74.15
2022-10-05T15:59:07.896Z,74.23
2022-10-05T16:02:22.572Z,74.45
2022-10-05T16:05:47.808Z,74.71
2022-10-05T16:09:05.776Z,75.22
2022-10-05T16:12:34.024Z,75.73
2022-10-05T16:15:40.096Z,76.50
2022-10-05T16:18:52.853Z,76.49
2022-10-05T16:22:03.348Z,76.88
2022-10-05T16:25:10.509Z,77.09
2022-10-05T16:28:14.820Z,77.84
2022-10-05T16:31:22.563Z,78.14
2022-10-05T16:34:48.870Z,78.16
2022-10-05T16:38:29.397Z,78.72
2022-10-05T16:41:34.519Z,78.67
2022-10-05T16:44:40.934Z,79.28
2022-10-05T16:47:52.908Z,79.43
2022-10-05T16:51:19.376Z,79.29
2022-10-05T16:54:30.185Z,79.75
2022-10-05T16:57:38.820Z,80.22
2022-10-05T17:01:24.735Z,80.23
2022-10-05T17:04:39.457Z,80.77
2022-10-05T17:07:49.963Z,80.47
2022-10-05T17:11:03.498Z,80.13
2022-10-05T17:14:27.716Z,80.30
2022-10-05T17:17:59.663Z,79.59
2022-10-05T17:21:17.807Z,79.88
2022-10-05T17:24:29.871Z,79.86
2022-10-05T17:27:34.003Z,79.85
2022-10-05T17:30:46.760Z,79.62
2022-10-05T17:33:59.972Z,79.77
2022-10-05T17:37:18.247Z,79.82
2022-10-05T17:40:33.926Z,79.87
2022-10-05T17:43:35.595Z,80.40
2022-10-05T17:46:44.535Z,80.00
2022-10-05T17:49:59.416Z,79.67
2022-10-05T17:53:37.582Z,80.27
2022-10-05T17:56:44.942Z,80.38
2022-10-05T17:59:57.150Z,80.29
2022-10-05T18:02:58.652Z,80.60
2022-10-05T18:06:25.098Z,79.81
2022-10-05T18:09:26.401Z,80.18
2022-10-05T18:12:41.345Z,79.34
2022-10-05T18:15:45.768Z,79.88
2022-10-05T18:18:56.929Z,79.08
2022-10-05T18:22:13.351Z,78.93
2022-10-05T18:25:17.646Z,78.72
2022-10-05T18:28:31.561Z,78.39
2022-10-05T18:31:39.405Z,78.29
2022-10-05T18:35:19.599Z,78.09
2022-10-05T18:38:55.883Z,77.88
2022-10-05T18:42:09.415Z,78.01
2022-10-05T18:45:19.764Z,77.65
2022-10-05T18:48:58.644Z,77.44
2022-10-05T18:52:28.216Z,78.10
2022-10-05T18:55:37.074Z,78.43
2022-10-05T18:58:56.938Z,78.16
2022-10-05T19:02:18.791Z,77.85
2022-10-05T19:05:47.449Z,77.70
2022-10-05T19:09:14.393Z,77.72
2022-10-05T19:12:53.261Z,77.79
2022-10-05T19:16:19.994Z,78.22
2022-10-05T19:19:39.481Z,78.22
2022-10-05T19:23:11.090Z,77.92
2022-10-05T19:26:43.229Z,77.56
2022-10-05T19:30:03.393Z,77.52
2022-10-05T19:33:10.813Z,77.42
2022-10-05T19:36:21.475Z,76.94
2022-10-05T19:39:36.825Z,76.96
2022-10-05T19:43:00.893Z,77.23
2022-10-05T19:46:17.700Z,77.41
2022-10-05T19:49:53.803Z,76.90
2022-10-05T19:53:43.867Z,76.61
2022-10-05T19:56:48.003Z,76.65
2022-10-05T19:59:49.351Z,76.73
2022-10-05T20:03:11.695Z,77.38
2022-10-05T20:06:13.130Z,77.38
2022-10-05T20:09:21.326Z,76.66
2022-10-05T20:12:22.759Z,77.00
2022-10-05T20:15:36.000Z,76.99
2022-10-05T20:18:40.320Z,77.61
2022-10-05T20:21:47.803Z,77.43
2022-10-05T20:24:51.228Z,77.67
2022-10-05T20:27:54.023Z,78.05
2022-10-05T20:30:55.608Z,78.16
2022-10-05T20:33:59.196Z,77.86
2022-10-05T20:37:00.531Z,77.70
2022-10-05T20:40:02.325Z,78.01
2022-10-05T20:43:03.680Z,78.05
2022-10-05T20:46:05.167Z,78.17
2022-10-05T20:49:06.497Z,78.21
2022-10-05T20:52:09.426Z,78.51
2022-10-05T20:55:11.360Z,78.44
2022-10-05T20:58:12.688Z,78.44
2022-10-05T21:01:14.091Z,78.67
2022-10-05T21:04:17.615Z,78.85
2022-10-05T21:07:19.397Z,79.32
2022-10-05T21:10:20.725Z,79.16
2022-10-05T21:13:22.138Z,79.22
2022-10-05T21:16:23.538Z,79.37
2022-10-05T21:19:25.013Z,79.84
2022-10-05T21:22:26.362Z,79.88
2022-10-05T21:25:27.678Z,80.29
2022-10-05T21:28:29.511Z,81.19
2022-10-05T21:31:31.286Z,82.20
2022-10-05T21:34:32.694Z,81.77
2022-10-05T21:37:33.998Z,81.66
2022-10-05T21:40:35.344Z,81.21
2022-10-05T21:43:36.801Z,80.65
2022-10-05T21:46:39.021Z,80.28
2022-10-05T21:49:41.280Z,80.03
2022-10-05T21:52:42.951Z,79.98
2022-10-05T21:55:48.011Z,79.72
2022-10-05T21:58:50.816Z,79.73
2022-10-05T22:01:52.149Z,78.99
2022-10-05T22:04:53.480Z,79.08
2022-10-05T22:07:54.783Z,78.73
2022-10-05T22:10:57.027Z,78.23
2022-10-05T22:13:58.649Z,78.03
2022-10-05T22:17:00.029Z,77.69
2022-10-05T22:20:02.170Z,77.56
2022-10-05T22:23:03.504Z,77.92
2022-10-05T22:26:06.425Z,78.32
2022-10-05T22:29:07.860Z,78.87
2022-10-05T22:32:09.272Z,80.26
2022-10-05T22:35:11.901Z,83.19
2022-10-05T22:38:13.354Z,85.08
2022-10-05T22:41:15.151Z,87.17
2022-10-05T22:44:16.538Z,88.08
2022-10-05T22:47:17.857Z,88.95
2022-10-05T22:50:19.322Z,89.06
2022-10-05T22:53:20.658Z,88.42
2022-10-05T22:56:21.986Z,88.00
2022-10-05T22:59:23.341Z,87.38
2022-10-05T23:02:24.748Z,86.96
2022-10-05T23:05:26.181Z,86.55
2022-10-05T23:08:28.042Z,86.27
2022-10-05T23:11:29.578Z,86.25
2022-10-05T23:14:30.895Z,85.97
2022-10-05T23:17:32.286Z,86.25
2022-10-05T23:20:33.593Z,86.09
2022-10-05T23:23:43.180Z,85.81
2022-10-05T23:26:44.511Z,85.43
2022-10-05T23:29:46.286Z,85.35
2022-10-05T23:32:47.603Z,84.94
2022-10-05T23:35:48.947Z,83.94
2022-10-05T23:38:50.507Z,83.67
2022-10-05T23:41:51.981Z,83.30
2022-10-05T23:44:53.318Z,83.11
2022-10-05T23:47:54.658Z,82.86
2022-10-05T23:50:56.041Z,82.74
2022-10-05T23:53:57.379Z,81.84
2022-10-05T23:56:58.713Z,81.58
